createdAt,value
2018-10-18T00:02:06.650Z,2.50
2018-10-18T00:04:33.704Z,2.60
2018-10-18T00:07:00.916Z,2.30
2018-10-18T00:09:27.976Z,2.67
2018-10-18T00:11:55.065Z,2.90
2018-10-18T00:14:22.149Z,2.60
2018-10-18T00:16:49.202Z,2.30
2018-10-18T00:19:16.280Z,2.33
2018-10-18T00:21:43.364Z,2.03
2018-10-18T00:24:10.532Z,1.90
2018-10-18T00:26:37.533Z,2.63
2018-10-18T00:29:04.745Z,1.63
2018-10-18T00:31:31.798Z,2.17
2018-10-18T00:33:58.879Z,2.10
2018-10-18T00:36:26.209Z,2.43
2018-10-18T00:38:53.290Z,1.73
2018-10-18T00:41:20.373Z,2.30
2018-10-18T00:43:48.093Z,2.77
2018-10-18T00:46:15.145Z,2.57
2018-10-18T00:48:42.196Z,2.33
2018-10-18T00:51:11.341Z,1.97
2018-10-18T00:53:38.422Z,2.80
2018-10-18T00:56:13.135Z,2.57
2018-10-18T00:58:40.149Z,2.20
2018-10-18T01:01:07.274Z,2.97
2018-10-18T01:03:34.852Z,2.57
2018-10-18T01:06:02.007Z,2.63
2018-10-18T01:08:29.052Z,2.60
2018-10-18T01:10:56.140Z,2.87
2018-10-18T01:13:23.200Z,3.00
2018-10-18T01:15:50.275Z,3.13
2018-10-18T01:18:17.390Z,3.13
2018-10-18T01:20:44.400Z,2.87
2018-10-18T01:23:11.512Z,3.13
2018-10-18T01:25:38.948Z,2.87
2018-10-18T01:28:06.013Z,2.60
2018-10-18T01:30:33.084Z,4.10
2018-10-18T01:33:00.309Z,3.43
2018-10-18T01:35:27.528Z,3.03
2018-10-18T01:37:54.631Z,2.50
2018-10-18T01:40:21.980Z,3.07
2018-10-18T01:42:49.197Z,2.60
2018-10-18T01:45:16.262Z,3.10
2018-10-18T01:47:43.661Z,3.30
2018-10-18T01:50:10.841Z,3.37
2018-10-18T01:52:37.788Z,3.27
2018-10-18T01:55:06.532Z,2.80
2018-10-18T01:57:35.238Z,4.20
2018-10-18T02:00:02.366Z,3.50
2018-10-18T02:02:29.984Z,4.00
2018-10-18T02:04:57.049Z,4.10
2018-10-18T02:07:24.153Z,3.00
2018-10-18T02:09:51.236Z,3.27
2018-10-18T02:12:18.354Z,3.93
2018-10-18T02:14:45.341Z,3.70
2018-10-18T02:17:12.420Z,3.13
2018-10-18T02:19:39.509Z,3.80
2018-10-18T02:22:06.606Z,4.03
2018-10-18T02:24:33.684Z,3.93
2018-10-18T02:27:00.772Z,4.37
2018-10-18T02:29:27.846Z,3.17
2018-10-18T02:31:54.920Z,3.60
2018-10-18T02:34:21.987Z,3.67
2018-10-18T02:36:49.048Z,3.67
2018-10-18T02:39:16.125Z,4.00
2018-10-18T02:41:43.219Z,3.80
2018-10-18T02:44:10.320Z,4.23
2018-10-18T02:46:37.639Z,4.23
2018-10-18T02:49:04.724Z,4.73
2018-10-18T02:51:31.776Z,4.23
2018-10-18T02:53:59.435Z,4.63
2018-10-18T02:56:26.491Z,4.70
2018-10-18T02:58:55.294Z,4.87
2018-10-18T03:01:22.368Z,4.30
2018-10-18T03:03:49.448Z,4.67
2018-10-18T03:06:16.618Z,4.40
2018-10-18T03:08:43.636Z,4.17
2018-10-18T03:11:10.716Z,4.73
2018-10-18T03:13:37.795Z,3.83
2018-10-18T03:16:04.920Z,3.73
2018-10-18T03:18:31.964Z,4.10
2018-10-18T03:20:59.032Z,4.53
2018-10-18T03:23:26.501Z,3.80
2018-10-18T03:25:53.561Z,3.47
2018-10-18T03:28:20.629Z,3.87
2018-10-18T03:30:47.970Z,4.30
2018-10-18T03:33:15.041Z,3.93
2018-10-18T03:35:42.129Z,4.27
2018-10-18T03:38:09.204Z,3.33
2018-10-18T03:40:36.280Z,3.53
2018-10-18T03:43:03.328Z,3.43
2018-10-18T03:45:30.700Z,3.37
2018-10-18T03:47:57.817Z,3.37
2018-10-18T03:50:24.861Z,4.27
2018-10-18T03:52:52.084Z,3.77
2018-10-18T03:55:21.792Z,3.20
2018-10-18T03:57:48.869Z,2.97
2018-10-18T04:00:16.447Z,2.83
2018-10-18T04:02:43.509Z,3.77
2018-10-18T04:05:10.605Z,3.63
2018-10-18T04:07:37.970Z,3.43
2018-10-18T04:10:05.082Z,3.57
2018-10-18T04:12:32.229Z,3.93
2018-10-18T04:14:59.542Z,3.33
2018-10-18T04:17:26.601Z,3.47
2018-10-18T04:19:53.663Z,3.30
2018-10-18T04:22:21.309Z,3.10
2018-10-18T04:24:48.402Z,2.77
2018-10-18T04:27:15.516Z,3.23
2018-10-18T04:29:42.587Z,3.60
2018-10-18T04:32:09.696Z,3.00
2018-10-18T04:34:36.793Z,3.53
2018-10-18T04:37:03.895Z,2.60
2018-10-18T04:39:30.965Z,2.33
2018-10-18T04:41:58.057Z,3.47
2018-10-18T04:44:25.170Z,4.50
2018-10-18T04:46:52.257Z,4.40
2018-10-18T04:49:19.316Z,5.00
2018-10-18T04:51:46.620Z,4.47
2018-10-18T04:54:13.672Z,4.10
2018-10-18T04:56:40.791Z,4.47
2018-10-18T04:59:08.137Z,6.57
2018-10-18T05:01:35.506Z,4.73
2018-10-18T05:04:02.545Z,4.53
2018-10-18T05:06:29.629Z,5.83
2018-10-18T05:08:56.695Z,5.77
2018-10-18T05:11:23.759Z,5.50
2018-10-18T05:13:51.268Z,6.10
2018-10-18T05:16:18.332Z,6.07
2018-10-18T05:18:45.401Z,5.20
2018-10-18T05:21:12.732Z,4.50
2018-10-18T05:23:39.853Z,4.90
2018-10-18T05:26:07.340Z,4.90
2018-10-18T05:28:34.414Z,4.13
2018-10-18T05:31:01.521Z,3.60
2018-10-18T05:33:28.566Z,4.80
2018-10-18T05:35:56.146Z,4.67
2018-10-18T05:38:23.281Z,4.08
2018-10-18T05:40:50.364Z,3.60
2018-10-18T05:43:17.490Z,3.30
2018-10-18T05:45:44.519Z,3.75
2018-10-18T05:48:11.577Z,1.90
2018-10-18T05:50:38.653Z,3.53
2018-10-18T05:53:05.796Z,3.10
2018-10-18T05:55:32.785Z,3.07
2018-10-18T05:57:59.889Z,2.80
2018-10-18T06:00:26.994Z,2.23
2018-10-18T06:02:54.069Z,2.00
2018-10-18T06:05:21.432Z,1.90
2018-10-18T06:07:48.476Z,1.77
2018-10-18T06:10:27.767Z,2.20
2018-10-18T06:12:54.825Z,1.70
2018-10-18T06:15:22.389Z,1.47
2018-10-18T06:17:49.446Z,1.93
2018-10-18T06:20:16.912Z,1.67
2018-10-18T06:22:44.085Z,1.83
2018-10-18T06:25:11.892Z,2.33
2018-10-18T06:27:38.955Z,1.40
2018-10-18T06:30:07.601Z,1.77
2018-10-18T06:32:35.049Z,2.23
2018-10-18T06:35:02.189Z,2.10
2018-10-18T06:37:29.275Z,1.80
2018-10-18T06:39:56.248Z,1.97
2018-10-18T06:42:23.288Z,1.90
2018-10-18T06:44:50.374Z,1.97
2018-10-18T06:47:17.725Z,2.07
2018-10-18T06:49:44.762Z,2.40
2018-10-18T06:52:11.816Z,1.63
2018-10-18T06:54:38.882Z,2.03
2018-10-18T06:57:06.448Z,1.90
2018-10-18T06:59:33.488Z,1.63
2018-10-18T07:02:00.544Z,1.53
2018-10-18T07:04:27.691Z,1.97
2018-10-18T07:06:54.748Z,3.03
2018-10-18T07:09:21.812Z,1.97
2018-10-18T07:11:48.972Z,1.87
2018-10-18T07:14:16.048Z,2.57
2018-10-18T07:16:43.357Z,2.03
2018-10-18T07:19:10.379Z,2.23
2018-10-18T07:21:37.423Z,2.30
2018-10-18T07:24:04.562Z,3.13
2018-10-18T07:26:31.589Z,2.37
2018-10-18T07:28:59.400Z,2.00
2018-10-18T07:31:26.464Z,1.93
2018-10-18T07:33:53.500Z,1.90
2018-10-18T07:36:20.550Z,2.40
2018-10-18T07:38:47.876Z,1.93
2018-10-18T07:41:15.050Z,2.40
2018-10-18T07:43:42.064Z,2.05
2018-10-18T07:46:09.152Z,2.33
2018-10-18T07:48:36.210Z,2.08
2018-10-18T07:51:03.273Z,2.42
2018-10-18T07:53:30.473Z,1.98
2018-10-18T07:55:57.485Z,1.80
2018-10-18T07:58:24.550Z,1.90
2018-10-18T08:00:52.025Z,1.07
2018-10-18T08:03:18.904Z,1.43
2018-10-18T08:05:46.164Z,1.33
2018-10-18T08:08:17.321Z,1.40
2018-10-18T08:10:44.391Z,1.50
2018-10-18T08:13:11.453Z,2.10
2018-10-18T08:15:38.515Z,1.40
2018-10-18T08:18:05.585Z,1.97
2018-10-18T08:20:32.649Z,1.90
2018-10-18T08:23:00.159Z,2.70
2018-10-18T08:25:27.244Z,2.30
2018-10-18T08:27:54.317Z,2.10
2018-10-18T08:30:23.614Z,1.97
2018-10-18T08:32:50.680Z,1.70
2018-10-18T08:35:17.737Z,2.00
2018-10-18T08:37:44.909Z,1.80
2018-10-18T08:40:11.856Z,2.30
2018-10-18T08:42:38.908Z,2.40
2018-10-18T08:45:07.010Z,2.35
2018-10-18T08:47:34.092Z,1.57
2018-10-18T08:50:01.198Z,1.67
2018-10-18T08:52:28.492Z,2.33
2018-10-18T08:54:55.552Z,1.33
2018-10-18T08:57:22.617Z,1.67
2018-10-18T08:59:49.667Z,1.80
2018-10-18T09:02:16.718Z,1.90
2018-10-18T09:04:43.888Z,1.50
2018-10-18T09:07:11.470Z,1.70
2018-10-18T09:09:38.493Z,2.13
2018-10-18T09:12:05.549Z,2.60
2018-10-18T09:14:32.877Z,2.20
2018-10-18T09:16:59.931Z,2.13
2018-10-18T09:19:26.995Z,1.90
2018-10-18T09:21:54.058Z,1.90
2018-10-18T09:24:21.120Z,2.20
2018-10-18T09:26:48.205Z,2.57
2018-10-18T09:29:15.512Z,1.80
2018-10-18T09:31:42.764Z,1.80
2018-10-18T09:34:09.814Z,1.53
2018-10-18T09:36:38.204Z,1.83
2018-10-18T09:39:06.276Z,1.43
2018-10-18T09:41:33.328Z,1.70
2018-10-18T09:44:03.588Z,1.70
2018-10-18T09:46:31.388Z,1.80
2018-10-18T09:48:58.578Z,1.73
2018-10-18T09:51:25.639Z,1.53
2018-10-18T09:53:52.684Z,2.13
2018-10-18T09:56:19.898Z,1.90
2018-10-18T09:58:46.872Z,1.13
2018-10-18T10:01:19.660Z,1.43
2018-10-18T10:03:46.736Z,1.73
2018-10-18T10:06:13.809Z,2.80
2018-10-18T10:08:40.917Z,2.03
2018-10-18T10:11:08.167Z,1.67
2018-10-18T10:13:35.272Z,1.50
2018-10-18T10:16:02.484Z,1.83
2018-10-18T10:18:29.875Z,1.40
2018-10-18T10:20:56.927Z,1.37
2018-10-18T10:23:24.173Z,1.50
2018-10-18T10:25:51.295Z,1.50
2018-10-18T10:28:18.350Z,1.97
2018-10-18T10:30:45.453Z,1.10
2018-10-18T10:33:19.100Z,2.00
2018-10-18T10:35:46.134Z,1.43
2018-10-18T10:38:13.315Z,2.33
2018-10-18T10:40:41.288Z,1.60
2018-10-18T10:43:08.380Z,1.60
2018-10-18T10:45:35.538Z,2.23
2018-10-18T10:48:02.957Z,2.03
2018-10-18T10:50:30.084Z,1.17
2018-10-18T10:52:57.136Z,1.40
2018-10-18T10:55:24.236Z,1.80
2018-10-18T10:57:51.273Z,0.90
2018-10-18T11:01:15.376Z,1.00
2018-10-18T11:03:42.908Z,1.23
2018-10-18T11:06:10.378Z,2.13
2018-10-18T11:08:37.317Z,1.10
2018-10-18T11:11:04.900Z,2.00
2018-10-18T11:13:31.952Z,1.53
2018-10-18T11:16:00.932Z,1.47
2018-10-18T11:18:27.975Z,1.53
2018-10-18T11:20:55.090Z,1.33
2018-10-18T11:23:22.301Z,1.17
2018-10-18T11:25:49.548Z,0.70
2018-10-18T11:28:16.629Z,1.20
2018-10-18T11:30:44.904Z,1.43
2018-10-18T11:33:12.246Z,1.17
2018-10-18T11:35:39.899Z,1.20
2018-10-18T11:38:08.826Z,1.07
2018-10-18T11:40:35.929Z,1.13
2018-10-18T11:43:03.128Z,0.77
2018-10-18T11:45:30.727Z,1.50
2018-10-18T11:47:57.834Z,1.13
2018-10-18T11:50:24.997Z,0.80
2018-10-18T11:52:52.396Z,1.03
2018-10-18T11:55:19.456Z,1.10
2018-10-18T11:57:46.541Z,1.17
2018-10-18T12:00:17.352Z,1.53
2018-10-18T12:02:45.030Z,1.10
2018-10-18T12:05:12.522Z,1.00
2018-10-18T12:07:39.519Z,1.40
2018-10-18T12:10:07.356Z,0.83
2018-10-18T12:12:34.401Z,1.10
2018-10-18T12:15:01.749Z,1.27
2018-10-18T12:17:28.832Z,0.80
2018-10-18T12:19:55.924Z,0.60
2018-10-18T12:22:22.972Z,1.30
2018-10-18T12:24:50.024Z,0.80
2018-10-18T12:27:17.074Z,0.70
2018-10-18T12:29:44.382Z,1.07
2018-10-18T12:32:11.506Z,1.10
2018-10-18T12:34:38.501Z,0.83
2018-10-18T12:37:05.732Z,1.07
2018-10-18T12:39:33.129Z,0.70
2018-10-18T12:42:00.176Z,1.00
2018-10-18T12:44:31.844Z,1.50
2018-10-18T12:46:58.928Z,0.67
2018-10-18T12:49:25.989Z,0.93
2018-10-18T12:51:53.342Z,0.80
2018-10-18T12:54:20.410Z,0.93
2018-10-18T12:56:47.513Z,0.90
2018-10-18T12:59:14.665Z,1.20
2018-10-18T13:01:41.729Z,0.63
2018-10-18T13:04:08.801Z,0.93
2018-10-18T13:06:36.168Z,0.97
2018-10-18T13:09:05.563Z,0.73
2018-10-18T13:11:32.633Z,1.13
2018-10-18T13:13:59.708Z,1.13
2018-10-18T13:16:26.904Z,0.40
2018-10-18T13:18:53.993Z,0.83
2018-10-18T13:21:21.052Z,0.77
2018-10-18T13:23:48.150Z,0.83
2018-10-18T13:26:15.270Z,0.77
2018-10-18T13:28:42.290Z,0.70
2018-10-18T13:31:09.876Z,0.50
2018-10-18T13:33:36.946Z,1.43
2018-10-18T13:36:04.451Z,1.03
2018-10-18T13:38:31.494Z,0.47
2018-10-18T13:40:58.547Z,0.90
2018-10-18T13:43:25.634Z,1.10
2018-10-18T13:45:52.726Z,1.27
2018-10-18T13:48:19.785Z,0.57
2018-10-18T13:50:46.840Z,0.70
2018-10-18T13:53:13.909Z,0.40
2018-10-18T13:55:40.957Z,1.47
2018-10-18T13:58:08.132Z,0.67
2018-10-18T14:00:35.282Z,0.73
2018-10-18T14:03:02.389Z,0.50
2018-10-18T14:05:29.501Z,0.80
2018-10-18T14:07:57.057Z,0.70
2018-10-18T14:10:24.088Z,0.87
2018-10-18T14:12:51.902Z,0.60
2018-10-18T14:15:18.956Z,0.83
2018-10-18T14:17:46.284Z,0.87
2018-10-18T14:20:13.388Z,0.50
2018-10-18T14:22:41.091Z,1.10
2018-10-18T14:25:08.506Z,1.07
2018-10-18T14:27:35.557Z,1.00
2018-10-18T14:30:03.194Z,0.93
2018-10-18T14:32:30.213Z,0.77
2018-10-18T14:34:57.358Z,0.93
2018-10-18T14:37:24.368Z,0.80
2018-10-18T14:39:51.416Z,0.80
2018-10-18T14:42:18.485Z,0.70
2018-10-18T14:44:49.240Z,0.90
2018-10-18T14:47:16.569Z,0.50
2018-10-18T14:49:43.568Z,0.60
2018-10-18T14:54:54.861Z,0.50
2018-10-18T14:57:21.916Z,0.97
2018-10-18T14:59:48.960Z,0.67
2018-10-18T15:02:16.687Z,0.60
2018-10-18T15:04:43.701Z,0.80
2018-10-18T15:07:10.752Z,0.70
2018-10-18T15:09:38.001Z,1.10
2018-10-18T15:12:05.531Z,1.00
2018-10-18T15:14:32.576Z,0.73
2018-10-18T15:17:00.121Z,0.60
2018-10-18T15:19:27.253Z,0.80
2018-10-18T15:21:54.312Z,0.70
2018-10-18T15:24:21.375Z,0.57
2018-10-18T15:26:48.492Z,0.83
2018-10-18T15:29:15.503Z,0.87
2018-10-18T15:31:42.566Z,0.77
2018-10-18T15:34:09.617Z,0.50
2018-10-18T15:36:36.675Z,0.70
2018-10-18T15:39:06.781Z,0.87
2018-10-18T15:41:33.736Z,0.87
2018-10-18T15:44:00.815Z,0.37
2018-10-18T15:46:28.198Z,0.83
2018-10-18T15:48:55.246Z,0.83
2018-10-18T15:51:22.301Z,0.50
2018-10-18T15:53:49.385Z,0.67
2018-10-18T15:56:16.679Z,0.50
2018-10-18T15:58:43.753Z,0.67
2018-10-18T16:01:11.036Z,0.70
2018-10-18T16:03:38.096Z,0.60
2018-10-18T16:06:05.216Z,0.30
2018-10-18T16:08:32.622Z,0.70
2018-10-18T16:10:59.723Z,1.97
2018-10-18T16:13:26.762Z,0.60
2018-10-18T16:15:53.813Z,0.70
2018-10-18T16:18:20.873Z,0.80
2018-10-18T16:20:48.340Z,1.13
2018-10-18T16:23:15.910Z,0.80
2018-10-18T16:25:42.938Z,0.43
2018-10-18T16:28:09.957Z,0.90
2018-10-18T16:30:37.411Z,0.83
2018-10-18T16:33:04.465Z,0.97
2018-10-18T16:35:31.526Z,0.83
2018-10-18T16:37:59.195Z,1.13
2018-10-18T16:40:26.286Z,0.40
2018-10-18T16:42:53.345Z,0.70
2018-10-18T16:45:20.742Z,0.43
2018-10-18T16:47:47.821Z,0.80
2018-10-18T16:50:14.978Z,0.83
2018-10-18T16:52:42.632Z,0.70
2018-10-18T16:55:09.720Z,0.30
2018-10-18T16:57:36.778Z,0.60
2018-10-18T17:00:05.348Z,0.60
2018-10-18T17:02:32.377Z,0.73
2018-10-18T17:04:59.445Z,0.53
2018-10-18T17:07:26.536Z,0.70
2018-10-18T17:09:53.618Z,0.63
2018-10-18T17:12:20.705Z,0.73
2018-10-18T17:14:47.761Z,0.80
2018-10-18T17:17:14.832Z,0.70
2018-10-18T17:19:42.107Z,0.70
2018-10-18T17:22:09.268Z,0.40
2018-10-18T17:24:36.364Z,0.50
2018-10-18T17:27:03.449Z,0.60
2018-10-18T17:29:30.775Z,0.63
2018-10-18T17:31:57.995Z,0.70
2018-10-18T17:34:25.089Z,0.80
2018-10-18T17:39:19.112Z,1.00
2018-10-18T17:41:46.181Z,0.90
2018-10-18T17:44:13.383Z,0.53
2018-10-18T17:46:40.403Z,1.23
2018-10-18T17:49:07.609Z,0.40
2018-10-18T17:51:34.988Z,0.80
2018-10-18T17:54:02.135Z,1.22
2018-10-18T17:56:29.448Z,0.93
2018-10-18T17:58:56.852Z,0.70
2018-10-18T18:01:23.932Z,1.00
2018-10-18T18:03:50.986Z,1.00
2018-10-18T18:06:18.241Z,0.87
2018-10-18T18:08:45.145Z,0.80
2018-10-18T18:11:12.197Z,0.70
2018-10-18T18:13:39.270Z,0.93
2018-10-18T18:16:06.371Z,0.70
2018-10-18T18:18:33.392Z,0.60
2018-10-18T18:21:00.732Z,0.60
2018-10-18T18:25:54.617Z,0.40
2018-10-18T18:28:21.697Z,0.80
2018-10-18T18:30:48.752Z,0.77
2018-10-18T18:33:15.804Z,0.73
2018-10-18T18:35:43.061Z,0.80
2018-10-18T18:38:10.111Z,0.77
2018-10-18T18:40:37.166Z,0.60
2018-10-18T18:43:04.232Z,0.83
2018-10-18T18:45:34.413Z,0.77
2018-10-18T18:48:01.860Z,0.87
2018-10-18T18:50:28.980Z,0.93
2018-10-18T18:52:56.148Z,1.00
2018-10-18T18:55:23.157Z,0.50
2018-10-18T18:57:50.237Z,0.67
2018-10-18T19:00:17.409Z,0.70
2018-10-18T19:02:44.385Z,0.70
2018-10-18T19:05:11.435Z,1.00
2018-10-18T19:07:38.492Z,1.00
2018-10-18T19:10:05.744Z,1.10
2018-10-18T19:12:33.049Z,0.70
2018-10-18T19:15:00.132Z,0.73
2018-10-18T19:17:27.159Z,0.77
2018-10-18T19:19:54.222Z,0.60
2018-10-18T19:22:21.281Z,1.10
2018-10-18T19:24:48.356Z,1.13
2018-10-18T19:27:15.682Z,0.90
2018-10-18T19:29:42.731Z,1.07
2018-10-18T19:32:09.840Z,0.97
2018-10-18T19:34:37.243Z,0.67
2018-10-18T19:37:04.336Z,0.97
2018-10-18T19:39:31.381Z,0.60
2018-10-18T19:41:58.448Z,0.80
2018-10-18T19:44:25.771Z,1.23
2018-10-18T19:46:52.829Z,0.93
2018-10-18T19:49:19.917Z,1.00
2018-10-18T19:51:46.974Z,1.23
2018-10-18T19:54:14.021Z,0.90
2018-10-18T19:56:41.444Z,0.60
2018-10-18T19:59:08.511Z,1.00
2018-10-18T20:01:35.605Z,0.90
2018-10-18T20:04:02.716Z,0.93
2018-10-18T20:06:29.844Z,1.00
2018-10-18T20:08:56.911Z,0.60
2018-10-18T20:11:24.503Z,1.87
2018-10-18T20:13:51.895Z,0.80
2018-10-18T20:16:18.998Z,0.63
2018-10-18T20:18:46.548Z,0.93
2018-10-18T20:21:13.820Z,0.63
2018-10-18T20:23:40.924Z,0.80
2018-10-18T20:26:09.502Z,0.93
2018-10-18T20:28:38.324Z,0.90
2018-10-18T20:31:05.392Z,0.90
2018-10-18T20:33:32.868Z,1.27
2018-10-18T20:35:59.933Z,0.90
2018-10-18T20:38:26.994Z,1.10
2018-10-18T20:40:54.104Z,1.10
2018-10-18T20:43:21.136Z,1.17
2018-10-18T20:45:48.221Z,1.27
2018-10-18T20:48:15.699Z,0.93
2018-10-18T20:50:42.749Z,0.90
2018-10-18T20:53:09.868Z,1.20
2018-10-18T20:55:37.178Z,1.80
2018-10-18T20:58:04.291Z,1.27
2018-10-18T21:00:31.357Z,1.10
2018-10-18T21:02:58.843Z,1.33
2018-10-18T21:05:25.902Z,1.83
2018-10-18T21:07:52.956Z,1.13
2018-10-18T21:10:20.034Z,1.33
2018-10-18T21:12:47.096Z,1.20
2018-10-18T21:15:14.198Z,1.37
2018-10-18T21:17:41.247Z,1.73
2018-10-18T21:20:08.297Z,0.77
2018-10-18T21:22:35.357Z,1.10
2018-10-18T21:25:02.931Z,1.13
2018-10-18T21:27:30.267Z,0.97
2018-10-18T21:29:57.293Z,0.70
2018-10-18T21:32:24.697Z,1.20
2018-10-18T21:34:51.766Z,1.30
2018-10-18T21:37:18.804Z,1.00
2018-10-18T21:39:45.864Z,1.03
2018-10-18T21:42:12.916Z,0.83
2018-10-18T21:44:40.123Z,1.17
2018-10-18T21:47:07.614Z,1.33
2018-10-18T21:49:34.588Z,0.90
2018-10-18T21:52:01.661Z,1.30
2018-10-18T21:54:28.905Z,1.00
2018-10-18T21:56:56.336Z,0.80
2018-10-18T21:59:23.480Z,0.93
2018-10-18T22:01:50.848Z,1.27
2018-10-18T22:04:17.941Z,1.00
2018-10-18T22:06:45.866Z,1.37
2018-10-18T22:09:13.258Z,1.00
2018-10-18T22:11:40.296Z,0.70
2018-10-18T22:14:08.055Z,0.80
2018-10-18T22:16:35.540Z,1.07
2018-10-18T22:19:03.179Z,0.90
2018-10-18T22:21:30.232Z,0.70
2018-10-18T22:23:57.381Z,1.20
2018-10-18T22:26:24.421Z,0.80
2018-10-18T22:28:53.085Z,1.17
2018-10-18T22:31:20.168Z,0.80
2018-10-18T22:33:47.333Z,0.60
2018-10-18T22:36:14.381Z,0.90
2018-10-18T22:38:41.593Z,1.10
2018-10-18T22:41:09.020Z,1.00
2018-10-18T22:43:35.981Z,0.90
2018-10-18T22:46:03.408Z,1.23
2018-10-18T22:48:30.992Z,1.30
2018-10-18T22:50:58.375Z,0.80
2018-10-18T22:53:25.381Z,1.03
2018-10-18T22:55:52.662Z,1.03
2018-10-18T22:58:19.712Z,0.90
2018-10-18T23:00:48.101Z,1.03
2018-10-18T23:03:16.366Z,0.70
2018-10-18T23:05:43.636Z,0.70
2018-10-18T23:08:11.153Z,1.27
2018-10-18T23:10:38.197Z,1.17
2018-10-18T23:13:05.708Z,1.10
2018-10-18T23:15:32.758Z,1.07
2018-10-18T23:17:59.804Z,0.80
2018-10-18T23:20:27.142Z,1.43
2018-10-18T23:22:54.239Z,0.90
2018-10-18T23:25:21.280Z,0.70
2018-10-18T23:27:48.337Z,0.80
2018-10-18T23:30:15.949Z,0.70
2018-10-18T23:32:42.996Z,0.90
2018-10-18T23:35:10.496Z,0.83
2018-10-18T23:37:37.836Z,0.77
2018-10-18T23:40:05.036Z,0.80
2018-10-18T23:42:32.109Z,0.77
2018-10-18T23:44:59.926Z,0.60
2018-10-18T23:47:27.056Z,0.80
2018-10-18T23:49:54.778Z,0.60
2018-10-18T23:52:22.190Z,0.70
2018-10-18T23:54:49.250Z,0.80
2018-10-18T23:57:16.458Z,0.90
2018-10-18T23:59:44.376Z,1.07
